メインページ
METAR-TAF:

METAR-TAF

空港 :

ワットタイ国際空港

ヴィエンチャン, ラオス

緯度: 17-57N, 経度: 102-34E, 海抜: 171m

現時点の気象観測

当レポートは28分前の14:00(UTC)に作成
南/南西の風 2kt
気温 26°C
湿度 100%
気圧 1005 hPa
視程: 3000m
高度1000ftの雲は散在している
高度8300ftの曇り
霧雨

METAR: VLVT 201400Z 20002KT 3000 DZ SCT010 OVC083 26/26 Q1005 NOSIG

時間: 21:28 (14:28 UTC)

予報

当レポートは3時間28分前の11:00(UTC)に作成
予報は20日の 12時(UTC)から 21日の 12時(UTC)まで有効
南西の風 2kt
視程: 3000m
高度1300ftの雲は散在している
高度4000ftの千切れ雲あり
高度8300ftの千切れ雲あり
小雨

TAF: VLVT 201100Z 2012/2112 22002KT 3000 -RA SCT013 BKN040 BKN083

4,000以上の空港の気象観測と天気予報(METAR報とTAF報)

利用可能な観測所は地図上に黄色い丸と赤い丸で示す。

丸の上にカーソルを重ねると観測所名を参照できる。

次にクリックすると気象観測と天気予報を参照できる。

マップの切り替え:黒色「×」印の緑ボタンをクリックして拡大、「-」印の緑ボタンをクリックして縮小、緑色の三角印をクリックして隣りの地図に切り替え


METAR-TAF: